Weather History for KCOM - February, 2013

Change the Weather History Date:

Friday, February 1, 2013

  Actual Average (KABI) Record (KABI)
Temperature  
Mean Temperature 50 °F 46 °F  
Max Temperature 68 °F 58 °F 89 °F (1911)
Min Temperature 31 °F 34 °F 1 °F (1951)
Degree Days  
Heating Degree Days 16 19  
Month to date heating degree days 19  
Since 1 July heating degree days 1688  
Cooling Degree Days 0 0  
Month to date cooling degree days 0  
Year to date cooling degree days 1  
Moisture  
Dew Point 30 °F    
Average Humidity 49    
Maximum Humidity 81    
Minimum Humidity 24    
Precipitation  
Precipitation 0.00 in 0.04 in 0.89 in (1975)
Month to date precipitation 0.04  
Year to date precipitation 1.06  
Sea Level Pressure  
Sea Level Pressure 30.23 in    
Wind  
Wind Speed 7 mph (SSE)    
Max Wind Speed 17 mph    
Max Gust Speed 28 mph    
Visibility 10 miles    
Events      
T = Trace of Precipitation, MM = Missing Value Source: NWS Daily Summary

Daily Weather History Graph

Daily Weather History Graph

Search for Another Location

Airport or City:

Trip Planner

Search our weather history database for the weather conditions in past years. The results will help you decide how hot, cold, wet, or windy it might be!

Date:

Astronomy

Feb. 01, 2013 Rise Set
Actual Time 7:30 AM CST 6:12 PM CST
Civil Twilight 7:05 AM CST 6:37 PM CST
Nautical Twilight 6:36 AM CST 7:06 PM CST
Astronomical Twilight 6:07 AM CST 7:35 PM CST
Moon 11:54 PM CST 10:29 AM CST
Length of Visible Light 11h 32m
Length of Day
10h 41m
Waning Gibbous, 70% of the Moon is Illuminated
Feb 1
Waning Gibbous
Feb 3
Last Quarter
Feb 10
New
Feb 17
First Quarter
Feb 25
Full

Hourly Weather History & Observations

Time (CST) Temp. Windchill Dew Point Humidity Pressure Visibility Wind Dir Wind Speed Gust Speed Precip Events Conditions
12:15 AM 44.4 °F 42.9 °F 22.5 °F 42% 30.25 in 10.0 mi West 3.5 mph - N/A   Clear
12:35 AM 42.3 °F 36.3 °F 24.1 °F 49% 30.27 in 10.0 mi NNE 10.4 mph - N/A   Clear
12:55 AM 43.2 °F 39.0 °F 23.9 °F 47% 30.27 in 10.0 mi North 6.9 mph - N/A   Clear
1:15 AM 44.2 °F 39.7 °F 23.4 °F 44% 30.28 in 10.0 mi NE 8.1 mph - N/A   Clear
1:35 AM 45.1 °F 41.4 °F 23.2 °F 42% 30.29 in 10.0 mi NE 6.9 mph - N/A   Clear
1:55 AM 43.7 °F 40.3 °F 23.9 °F 46% 30.30 in 10.0 mi NNE 5.8 mph - N/A   Clear
2:15 AM 43.0 °F 38.2 °F 24.4 °F 48% 30.30 in 10.0 mi NNE 8.1 mph - N/A   Clear
2:55 AM 41.9 °F 38.2 °F 25.2 °F 52% 30.30 in 10.0 mi NE 5.8 mph - N/A   Clear
3:15 AM 41.2 °F 36.6 °F 25.7 °F 54% 30.30 in 10.0 mi NNE 6.9 mph - N/A   Clear
3:35 AM 41.2 °F 36.0 °F 26.4 °F 56% 30.30 in 10.0 mi NNE 8.1 mph - N/A   Clear
3:55 AM 41.4 °F 36.2 °F 26.8 °F 56% 30.29 in 10.0 mi NE 8.1 mph - N/A   Clear
4:15 AM 40.3 °F 35.5 °F 27.1 °F 59% 30.29 in 10.0 mi NE 6.9 mph - N/A   Clear
4:55 AM 37.4 °F 32.1 °F 27.3 °F 67% 30.31 in 10.0 mi NNE 6.9 mph - N/A   Clear
5:15 AM 36.5 °F 31.0 °F 27.5 °F 70% 30.30 in 10.0 mi NNE 6.9 mph - N/A   Clear
5:35 AM 35.8 °F 30.9 °F 27.3 °F 71% 30.31 in 10.0 mi NNE 5.8 mph - N/A   Clear
5:55 AM 34.9 °F 29.0 °F 27.3 °F 74% 30.31 in 10.0 mi NNE 6.9 mph - N/A   Clear
6:15 AM 34.0 °F 28.0 °F 27.3 °F 77% 30.31 in 10.0 mi NNE 6.9 mph - N/A   Clear
6:35 AM 33.1 °F 27.7 °F 27.1 °F 79% 30.32 in 10.0 mi NNE 5.8 mph - N/A   Clear
6:55 AM 33.4 °F 28.1 °F 27.1 °F 78% 30.32 in 10.0 mi NNE 5.8 mph - N/A   Clear
7:15 AM 32.2 °F 26.7 °F 26.8 °F 80% 30.32 in 10.0 mi NNE 5.8 mph - N/A   Clear
7:35 AM 32.0 °F 26.4 °F 26.4 °F 80% 30.32 in 10.0 mi NNE 5.8 mph - N/A   Clear
7:55 AM 31.5 °F - 26.2 °F 81% 30.33 in 10.0 mi Calm Calm - N/A   Clear
8:15 AM 32.7 °F - 27.1 °F 80% 30.33 in 10.0 mi Calm Calm - N/A   Clear
8:35 AM 35.4 °F 30.5 °F 28.4 °F 76% 30.34 in 10.0 mi NE 5.8 mph - N/A   Clear
8:55 AM 37.8 °F 33.3 °F 27.9 °F 67% 30.34 in 10.0 mi ENE 5.8 mph - N/A   Clear
9:15 AM 39.2 °F 35.9 °F 27.9 °F 64% 30.34 in 10.0 mi ESE 4.6 mph - N/A   Clear
9:35 AM 40.8 °F 37.8 °F 28.0 °F 60% 30.34 in 10.0 mi SE 4.6 mph - N/A   Clear
9:55 AM 42.4 °F 38.8 °F 28.4 °F 58% 30.33 in 10.0 mi ESE 5.8 mph - N/A   Clear
10:15 AM 44.6 °F 41.4 °F 28.6 °F 53% 30.33 in 10.0 mi ESE 5.8 mph - N/A   Clear
10:35 AM 46.0 °F 43.9 °F 28.8 °F 51% 30.32 in 10.0 mi SSE 4.6 mph - N/A   Clear
10:55 AM 47.7 °F - 29.1 °F 49% 30.32 in 10.0 mi SSE 5.8 mph - N/A   Clear
11:15 AM 49.6 °F - 29.1 °F 45% 30.31 in 10.0 mi SE 8.1 mph - N/A   Clear
11:35 AM 51.6 °F - 29.1 °F 42% 30.30 in 10.0 mi SSE 3.5 mph - N/A   Clear
11:55 AM 53.2 °F - 28.2 °F 38% 30.29 in 10.0 mi ESE 5.8 mph - N/A   Clear
12:15 PM 55.0 °F - 28.6 °F 36% 30.27 in 10.0 mi SSE 9.2 mph - N/A   Clear
12:35 PM 56.8 °F - 28.2 °F 33% 30.26 in 10.0 mi South 5.8 mph - N/A   Clear
12:55 PM 58.8 °F - 28.4 °F 31% 30.25 in 10.0 mi SSE 8.1 mph - N/A   Clear
1:15 PM 60.1 °F - 28.0 °F 30% 30.23 in 10.0 mi SSW 8.1 mph - N/A   Clear
1:35 PM 61.2 °F - 28.4 °F 29% 30.21 in 10.0 mi South 10.4 mph - N/A   Clear
1:55 PM 62.2 °F - 28.4 °F 28% 30.20 in 10.0 mi South 10.4 mph 17.3 mph N/A   Clear
2:15 PM 63.3 °F - 28.6 °F 27% 30.19 in 10.0 mi SSE 12.7 mph - N/A   Clear
2:35 PM 64.6 °F - 28.8 °F 26% 30.18 in 10.0 mi SSE 8.1 mph - N/A   Clear
2:55 PM 65.3 °F - 29.1 °F 26% 30.16 in 10.0 mi SSE 10.4 mph 17.3 mph N/A   Clear
3:15 PM 67.6 °F - 29.7 °F 24% 30.16 in 10.0 mi SSW 11.5 mph 24.2 mph N/A   Clear
3:35 PM 68.5 °F - 30.7 °F 25% 30.15 in 10.0 mi South 13.8 mph 27.6 mph N/A   Clear
3:55 PM 68.5 °F - 31.3 °F 25% 30.14 in 10.0 mi SSW 17.3 mph 25.3 mph N/A   Clear
4:15 PM 68.9 °F - 31.6 °F 25% 30.13 in 10.0 mi SSW 12.7 mph 20.7 mph N/A   Clear
4:35 PM 68.7 °F - 31.6 °F 25% 30.12 in 10.0 mi SSW 16.1 mph 21.9 mph N/A   Clear
4:55 PM 68.2 °F - 31.6 °F 26% 30.12 in 10.0 mi South 17.3 mph 23.0 mph N/A   Clear
5:15 PM 67.6 °F - 32.0 °F 27% 30.12 in 10.0 mi SSW 17.3 mph 21.9 mph N/A   Clear
5:35 PM 66.7 °F - 32.7 °F 28% 30.11 in 10.0 mi South 13.8 mph - N/A   Clear
5:55 PM 65.5 °F - 33.3 °F 30% 30.12 in 10.0 mi SSW 10.4 mph - N/A   Clear
6:15 PM 63.5 °F - 33.4 °F 33% 30.11 in 10.0 mi South 9.2 mph - N/A   Clear
6:35 PM 61.5 °F - 33.4 °F 35% 30.11 in 10.0 mi South 8.1 mph - N/A   Clear
6:55 PM 59.4 °F - 34.0 °F 39% 30.12 in 10.0 mi South 8.1 mph - N/A   Clear
7:15 PM 57.6 °F - 34.0 °F 41% 30.12 in 10.0 mi South 5.8 mph - N/A   Clear
7:35 PM 55.9 °F - 34.0 °F 44% 30.13 in 10.0 mi SSW 4.6 mph - N/A   Clear
7:55 PM 55.8 °F - 34.3 °F 44% 30.13 in 10.0 mi SSW 8.1 mph - N/A   Clear
8:15 PM 56.1 °F - 35.2 °F 45% 30.14 in 10.0 mi SSW 9.2 mph - N/A   Clear
8:35 PM 55.8 °F - 35.8 °F 47% 30.14 in 10.0 mi SSW 8.1 mph - N/A   Clear
8:55 PM 54.5 °F - 35.8 °F 49% 30.13 in 10.0 mi SSW 8.1 mph - N/A   Clear
9:15 PM 54.1 °F - 36.0 °F 50% 30.14 in 10.0 mi SSW 9.2 mph - N/A   Clear
9:35 PM 53.8 °F - 36.3 °F 52% 30.14 in 10.0 mi SSW 6.9 mph - N/A   Clear
9:55 PM 52.3 °F - 36.3 °F 54% 30.15 in 10.0 mi SSW 6.9 mph - N/A   Clear
10:15 PM 52.2 °F - 36.5 °F 55% 30.15 in 10.0 mi SSW 5.8 mph - N/A   Clear
10:35 PM 51.6 °F - 36.5 °F 56% 30.15 in 10.0 mi SSW 3.5 mph - N/A   Clear
10:55 PM 49.8 °F - 36.0 °F 59% 30.15 in 10.0 mi SSW 4.6 mph - N/A   Clear
11:15 PM 49.3 °F - 36.3 °F 61% 30.15 in 10.0 mi SW 3.5 mph - N/A   Clear
11:35 PM 49.5 °F - 36.5 °F 61% 30.14 in 10.0 mi SW 6.9 mph - N/A   Clear
11:55 PM 48.6 °F - 36.7 °F 64% 30.13 in 10.0 mi SSW 4.6 mph - N/A   Clear